sensor_id;sensor_type;location;lat;lon;timestamp;pressure;altitude;pressure_sealevel;temperature;humidity
61014;BME280;46899;47.542;19.082;2023-10-13T00:00:54;100644.34;;;14.42;100.00
61014;BME280;46899;47.542;19.082;2023-10-13T00:04:00;100650.56;;;14.39;100.00
61014;BME280;46899;47.542;19.082;2023-10-13T00:07:05;100650.56;;;14.39;100.00
61014;BME280;46899;47.542;19.082;2023-10-13T00:10:14;100653.28;;;14.37;100.00
61014;BME280;46899;47.542;19.082;2023-10-13T00:13:21;100662.75;;;14.40;100.00
61014;BME280;46899;47.542;19.082;2023-10-13T00:16:24;100657.66;;;14.37;100.00
61014;BME280;46899;47.542;19.082;2023-10-13T00:19:32;100666.44;;;14.36;100.00
61014;BME280;46899;47.542;19.082;2023-10-13T00:22:48;100659.22;;;14.41;100.00
61014;BME280;46899;47.542;19.082;2023-10-13T00:25:51;100658.63;;;14.34;100.00
61014;BME280;46899;47.542;19.082;2023-10-13T00:29:01;100665.25;;;14.23;100.00
61014;BME280;46899;47.542;19.082;2023-10-13T00:32:12;100663.13;;;14.12;100.00
61014;BME280;46899;47.542;19.082;2023-10-13T00:35:15;100656.34;;;14.08;100.00
61014;BME280;46899;47.542;19.082;2023-10-13T00:38:27;100658.13;;;14.06;100.00
61014;BME280;46899;47.542;19.082;2023-10-13T00:41:30;100650.25;;;14.08;100.00
61014;BME280;46899;47.542;19.082;2023-10-13T00:45:07;100647.41;;;14.12;100.00
61014;BME280;46899;47.542;19.082;2023-10-13T00:48:11;100649.19;;;14.12;100.00
61014;BME280;46899;47.542;19.082;2023-10-13T00:51:18;100650.94;;;14.11;100.00
61014;BME280;46899;47.542;19.082;2023-10-13T00:54:36;100647.91;;;14.20;100.00
61014;BME280;46899;47.542;19.082;2023-10-13T00:57:40;100660.56;;;14.11;100.00
61014;BME280;46899;47.542;19.082;2023-10-13T01:00:43;100657.03;;;14.12;100.00
61014;BME280;46899;47.542;19.082;2023-10-13T01:03:52;100657.03;;;14.12;100.00
61014;BME280;46899;47.542;19.082;2023-10-13T01:07:11;100638.06;;;14.07;100.00
61014;BME280;46899;47.542;19.082;2023-10-13T01:10:14;100634.66;;;14.05;100.00
61014;BME280;46899;47.542;19.082;2023-10-13T01:13:18;100632.97;;;14.04;100.00
61014;BME280;46899;47.542;19.082;2023-10-13T01:16:21;100626.94;;;14.02;100.00
61014;BME280;46899;47.542;19.082;2023-10-13T01:19:24;100631.34;;;14.01;100.00
61014;BME280;46899;47.542;19.082;2023-10-13T01:22:31;100639.91;;;14.05;100.00
61014;BME280;46899;47.542;19.082;2023-10-13T01:25:35;100648.81;;;14.01;100.00
61014;BME280;46899;47.542;19.082;2023-10-13T01:28:38;100648.53;;;14.07;100.00
61014;BME280;46899;47.542;19.082;2023-10-13T01:31:49;100643.31;;;14.07;100.00
61014;BME280;46899;47.542;19.082;2023-10-13T01:34:52;100646.84;;;14.06;100.00
61014;BME280;46899;47.542;19.082;2023-10-13T01:37:58;100641.66;;;14.04;100.00
61014;BME280;46899;47.542;19.082;2023-10-13T01:41:01;100639.00;;;14.06;100.00
61014;BME280;46899;47.542;19.082;2023-10-13T01:44:07;100633.47;;;14.12;100.00
61014;BME280;46899;47.542;19.082;2023-10-13T01:47:14;100633.47;;;14.12;100.00
61014;BME280;46899;47.542;19.082;2023-10-13T01:50:19;100647.63;;;14.08;100.00
61014;BME280;46899;47.542;19.082;2023-10-13T01:53:29;100655.47;;;14.08;100.00
61014;BME280;46899;47.542;19.082;2023-10-13T01:56:32;100664.22;;;14.07;100.00
61014;BME280;46899;47.542;19.082;2023-10-13T01:59:46;100667.91;;;14.03;100.00
61014;BME280;46899;47.542;19.082;2023-10-13T02:02:51;100665.38;;;14.01;100.00
61014;BME280;46899;47.542;19.082;2023-10-13T02:05:55;100662.75;;;14.01;100.00
61014;BME280;46899;47.542;19.082;2023-10-13T02:09:03;100659.84;;;14.07;100.00
61014;BME280;46899;47.542;19.082;2023-10-13T02:12:16;100659.72;;;14.10;100.00
61014;BME280;46899;47.542;19.082;2023-10-13T02:15:19;100659.72;;;14.10;100.00
61014;BME280;46899;47.542;19.082;2023-10-13T02:18:29;100665.94;;;14.08;100.00
61014;BME280;46899;47.542;19.082;2023-10-13T02:21:44;100657.31;;;14.06;100.00
61014;BME280;46899;47.542;19.082;2023-10-13T02:24:50;100659.00;;;14.07;100.00
61014;BME280;46899;47.542;19.082;2023-10-13T02:27:55;100651.16;;;14.07;100.00
61014;BME280;46899;47.542;19.082;2023-10-13T02:31:02;100652.91;;;14.06;100.00
61014;BME280;46899;47.542;19.082;2023-10-13T02:34:06;100650.37;;;14.05;100.00
61014;BME280;46899;47.542;19.082;2023-10-13T02:37:15;100659.28;;;14.01;100.00
61014;BME280;46899;47.542;19.082;2023-10-13T02:40:21;100667.19;;;13.99;100.00
61014;BME280;46899;47.542;19.082;2023-10-13T02:43:26;100663.66;;;14.00;100.00
61014;BME280;46899;47.542;19.082;2023-10-13T02:46:35;100659.72;;;14.10;100.00
61014;BME280;46899;47.542;19.082;2023-10-13T02:49:42;100672.66;;;14.13;100.00
61014;BME280;46899;47.542;19.082;2023-10-13T02:52:50;100679.69;;;14.13;100.00
61014;BME280;46899;47.542;19.082;2023-10-13T02:55:56;100690.94;;;14.15;100.00
61014;BME280;46899;47.542;19.082;2023-10-13T02:59:08;100711.44;;;14.24;100.00
61014;BME280;46899;47.542;19.082;2023-10-13T03:02:11;100707.00;;;14.26;100.00
61014;BME280;46899;47.542;19.082;2023-10-13T03:05:21;100705.16;;;14.28;100.00
61014;BME280;46899;47.542;19.082;2023-10-13T03:08:25;100698.16;;;14.28;100.00
61014;BME280;46899;47.542;19.082;2023-10-13T03:11:29;100689.28;;;14.32;100.00
61014;BME280;46899;47.542;19.082;2023-10-13T03:14:35;100688.37;;;14.33;100.00
61014;BME280;46899;47.542;19.082;2023-10-13T03:17:38;100691.03;;;14.32;100.00
61014;BME280;46899;47.542;19.082;2023-10-13T03:20:47;100689.28;;;14.32;100.00
61014;BME280;46899;47.542;19.082;2023-10-13T03:23:58;100681.09;;;14.40;100.00
61014;BME280;46899;47.542;19.082;2023-10-13T03:27:10;100671.50;;;14.39;100.00
61014;BME280;46899;47.542;19.082;2023-10-13T03:30:14;100657.59;;;14.38;100.00
61014;BME280;46899;47.542;19.082;2023-10-13T03:33:18;100650.53;;;14.41;100.00
61014;BME280;46899;47.542;19.082;2023-10-13T03:36:30;100648.69;;;14.43;100.00
61014;BME280;46899;47.542;19.082;2023-10-13T03:39:52;100653.41;;;14.53;100.00
61014;BME280;46899;47.542;19.082;2023-10-13T03:42:58;100656.97;;;14.52;100.00
61014;BME280;46899;47.542;19.082;2023-10-13T03:46:08;100651.84;;;14.49;100.00
61014;BME280;46899;47.542;19.082;2023-10-13T03:49:11;100637.84;;;14.50;100.00
61014;BME280;46899;47.542;19.082;2023-10-13T03:52:15;100639.41;;;14.54;100.00
61014;BME280;46899;47.542;19.082;2023-10-13T03:55:25;100646.06;;;14.61;100.00
61014;BME280;46899;47.542;19.082;2023-10-13T03:58:30;100617.97;;;14.65;100.00
61014;BME280;46899;47.542;19.082;2023-10-13T04:01:33;100607.69;;;14.60;100.00
61014;BME280;46899;47.542;19.082;2023-10-13T04:04:48;100608.62;;;14.59;100.00
61014;BME280;46899;47.542;19.082;2023-10-13T04:07:51;100618.75;;;14.67;100.00
61014;BME280;46899;47.542;19.082;2023-10-13T04:11:24;100618.75;;;14.67;100.00
61014;BME280;46899;47.542;19.082;2023-10-13T04:15:05;100609.13;;;14.67;100.00
61014;BME280;46899;47.542;19.082;2023-10-13T04:18:08;100603.06;;;14.65;100.00
61014;BME280;46899;47.542;19.082;2023-10-13T04:21:32;100604.06;;;14.63;100.00
61014;BME280;46899;47.542;19.082;2023-10-13T04:24:53;100613.50;;;14.67;100.00
61014;BME280;46899;47.542;19.082;2023-10-13T04:27:56;100621.34;;;14.67;100.00
61014;BME280;46899;47.542;19.082;2023-10-13T04:31:18;100623.19;;;14.65;100.00
61014;BME280;46899;47.542;19.082;2023-10-13T04:34:47;100628.62;;;14.60;100.00
61014;BME280;46899;47.542;19.082;2023-10-13T04:37:54;100618.28;;;14.76;100.00
61014;BME280;46899;47.542;19.082;2023-10-13T04:41:03;100615.81;;;14.73;100.00
61014;BME280;46899;47.542;19.082;2023-10-13T04:44:14;100626.50;;;14.68;100.00
61014;BME280;46899;47.542;19.082;2023-10-13T04:47:35;100617.16;;;14.63;100.00
61014;BME280;46899;47.542;19.082;2023-10-13T04:50:51;100634.72;;;14.61;100.00
61014;BME280;46899;47.542;19.082;2023-10-13T04:53:56;100629.34;;;14.64;100.00
61014;BME280;46899;47.542;19.082;2023-10-13T04:57:27;100617.66;;;14.71;100.00
61014;BME280;46899;47.542;19.082;2023-10-13T05:00:47;100620.06;;;14.75;100.00
61014;BME280;46899;47.542;19.082;2023-10-13T05:04:09;100615.31;;;14.83;100.00
61014;BME280;46899;47.542;19.082;2023-10-13T05:07:25;100620.09;;;14.92;100.00
61014;BME280;46899;47.542;19.082;2023-10-13T05:10:46;100631.84;;;14.84;100.00
61014;BME280;46899;47.542;19.082;2023-10-13T05:14:07;100647.75;;;14.81;100.00
61014;BME280;46899;47.542;19.082;2023-10-13T05:17:29;100659.09;;;14.81;100.00
61014;BME280;46899;47.542;19.082;2023-10-13T05:20:55;100664.47;;;14.78;100.00
61014;BME280;46899;47.542;19.082;2023-10-13T05:24:17;100658.38;;;14.78;100.00
61014;BME280;46899;47.542;19.082;2023-10-13T05:27:38;100651.13;;;14.83;100.00
61014;BME280;46899;47.542;19.082;2023-10-13T05:31:00;100655.38;;;14.85;100.00
61014;BME280;46899;47.542;19.082;2023-10-13T05:34:29;100675.91;;;14.94;100.00
61014;BME280;46899;47.542;19.082;2023-10-13T05:37:50;100679.84;;;15.03;100.00
61014;BME280;46899;47.542;19.082;2023-10-13T05:41:11;100687.66;;;15.04;100.00
61014;BME280;46899;47.542;19.082;2023-10-13T05:44:33;100689.88;;;15.12;100.00
61014;BME280;46899;47.542;19.082;2023-10-13T05:47:39;100700.31;;;15.14;100.00
61014;BME280;46899;47.542;19.082;2023-10-13T05:50:45;100703.62;;;15.17;100.00
61014;BME280;46899;47.542;19.082;2023-10-13T05:54:20;100697.16;;;15.24;100.00
61014;BME280;46899;47.542;19.082;2023-10-13T05:57:41;100689.00;;;15.30;100.00
61014;BME280;46899;47.542;19.082;2023-10-13T06:01:20;100698.28;;;15.37;100.00
61014;BME280;46899;47.542;19.082;2023-10-13T06:04:41;100703.00;;;15.48;100.00
61014;BME280;46899;47.542;19.082;2023-10-13T06:08:02;100699.16;;;15.55;100.00
61014;BME280;46899;47.542;19.082;2023-10-13T06:11:24;100706.50;;;15.48;100.00
61014;BME280;46899;47.542;19.082;2023-10-13T06:14:46;100711.66;;;15.50;100.00
61014;BME280;46899;47.542;19.082;2023-10-13T06:18:08;100716.75;;;15.53;100.00
61014;BME280;46899;47.542;19.082;2023-10-13T06:21:29;100729.88;;;15.70;100.00
61014;BME280;46899;47.542;19.082;2023-10-13T06:24:50;100742.63;;;15.78;100.00
61014;BME280;46899;47.542;19.082;2023-10-13T06:28:16;100752.34;;;15.93;100.00
61014;BME280;46899;47.542;19.082;2023-10-13T06:31:37;100743.75;;;16.06;100.00
61014;BME280;46899;47.542;19.082;2023-10-13T06:34:40;100764.56;;;16.11;100.00
61014;BME280;46899;47.542;19.082;2023-10-13T06:37:51;100761.22;;;16.07;100.00
61014;BME280;46899;47.542;19.082;2023-10-13T06:40:54;100761.38;;;16.04;100.00
61014;BME280;46899;47.542;19.082;2023-10-13T06:43:59;100761.56;;;16.01;100.00
61014;BME280;46899;47.542;19.082;2023-10-13T06:47:02;100772.28;;;15.97;100.00
61014;BME280;46899;47.542;19.082;2023-10-13T06:50:07;100787.00;;;15.99;100.00
61014;BME280;46899;47.542;19.082;2023-10-13T06:53:21;100783.56;;;15.99;100.00
61014;BME280;46899;47.542;19.082;2023-10-13T06:56:24;100795.81;;;15.98;100.00
61014;BME280;46899;47.542;19.082;2023-10-13T06:59:31;100782.59;;;16.00;100.00
61014;BME280;46899;47.542;19.082;2023-10-13T07:02:35;100796.34;;;16.05;100.00
61014;BME280;46899;47.542;19.082;2023-10-13T07:05:39;100798.88;;;16.06;100.00
61014;BME280;46899;47.542;19.082;2023-10-13T07:08:44;100805.84;;;16.07;100.00
61014;BME280;46899;47.542;19.082;2023-10-13T07:11:51;100804.94;;;16.08;100.00
61014;BME280;46899;47.542;19.082;2023-10-13T07:14:55;100780.84;;;16.17;100.00
61014;BME280;46899;47.542;19.082;2023-10-13T07:18:15;100784.94;;;16.06;100.00
61014;BME280;46899;47.542;19.082;2023-10-13T07:21:25;100789.97;;;16.10;100.00
61014;BME280;46899;47.542;19.082;2023-10-13T07:24:34;100799.50;;;16.11;100.00
61014;BME280;46899;47.542;19.082;2023-10-13T07:27:42;100800.28;;;16.13;100.00
61014;BME280;46899;47.542;19.082;2023-10-13T07:30:45;100794.97;;;16.15;100.00
61014;BME280;46899;47.542;19.082;2023-10-13T07:33:57;100790.78;;;16.28;100.00
61014;BME280;46899;47.542;19.082;2023-10-13T07:37:08;100781.50;;;16.38;100.00
61014;BME280;46899;47.542;19.082;2023-10-13T07:40:20;100785.75;;;16.58;100.00
61014;BME280;46899;47.542;19.082;2023-10-13T07:43:29;100792.50;;;16.79;100.00
61014;BME280;46899;47.542;19.082;2023-10-13T07:46:35;100796.66;;;16.98;100.00
61014;BME280;46899;47.542;19.082;2023-10-13T07:49:38;100797.97;;;17.07;100.00
61014;BME280;46899;47.542;19.082;2023-10-13T07:52:42;100796.50;;;17.17;100.00
61014;BME280;46899;47.542;19.082;2023-10-13T07:56:01;100805.09;;;17.21;100.00
61014;BME280;46899;47.542;19.082;2023-10-13T07:59:11;100792.63;;;17.24;100.00
61014;BME280;46899;47.542;19.082;2023-10-13T08:02:14;100801.72;;;17.19;100.00
61014;BME280;46899;47.542;19.082;2023-10-13T08:05:38;100807.38;;;17.27;100.00
61014;BME280;46899;47.542;19.082;2023-10-13T08:08:59;100807.03;;;17.17;100.00
61014;BME280;46899;47.542;19.082;2023-10-13T08:12:11;100804.00;;;17.25;100.00
61014;BME280;46899;47.542;19.082;2023-10-13T08:15:15;100793.56;;;17.39;100.00
61014;BME280;46899;47.542;19.082;2023-10-13T08:18:35;100790.50;;;17.46;100.00
61014;BME280;46899;47.542;19.082;2023-10-13T08:21:38;100785.75;;;17.68;100.00
61014;BME280;46899;47.542;19.082;2023-10-13T08:24:41;100791.78;;;17.70;100.00
61014;BME280;46899;47.542;19.082;2023-10-13T08:27:44;100801.78;;;17.80;100.00
61014;BME280;46899;47.542;19.082;2023-10-13T08:31:13;100793.03;;;17.79;100.00
61014;BME280;46899;47.542;19.082;2023-10-13T08:34:25;100805.50;;;17.91;100.00
61014;BME280;46899;47.542;19.082;2023-10-13T08:37:33;100813.56;;;18.18;100.00
61014;BME280;46899;47.542;19.082;2023-10-13T08:40:50;100803.78;;;18.20;100.00
61014;BME280;46899;47.542;19.082;2023-10-13T08:44:11;100799.28;;;18.22;100.00
61014;BME280;46899;47.542;19.082;2023-10-13T08:47:50;100804.13;;;18.43;100.00
61014;BME280;46899;47.542;19.082;2023-10-13T08:51:09;100813.84;;;18.57;100.00
61014;BME280;46899;47.542;19.082;2023-10-13T08:54:15;100822.34;;;18.62;100.00
61014;BME280;46899;47.542;19.082;2023-10-13T08:57:37;100821.38;;;18.77;100.00
61014;BME280;46899;47.542;19.082;2023-10-13T09:00:45;100823.19;;;18.77;100.00
61014;BME280;46899;47.542;19.082;2023-10-13T09:04:05;100822.25;;;18.78;100.00
61014;BME280;46899;47.542;19.082;2023-10-13T09:07:26;100812.72;;;18.75;100.00
61014;BME280;46899;47.542;19.082;2023-10-13T09:10:29;100808.69;;;18.84;100.00
61014;BME280;46899;47.542;19.082;2023-10-13T09:13:49;100812.34;;;19.09;100.00
61014;BME280;46899;47.542;19.082;2023-10-13T09:17:01;100810.25;;;19.29;100.00
61014;BME280;46899;47.542;19.082;2023-10-13T09:20:10;100811.59;;;19.62;100.00
61014;BME280;46899;47.542;19.082;2023-10-13T09:23:26;100814.91;;;20.05;100.00
61014;BME280;46899;47.542;19.082;2023-10-13T09:26:33;100806.53;;;20.25;100.00
61014;BME280;46899;47.542;19.082;2023-10-13T09:29:39;100806.75;;;20.48;100.00
61014;BME280;46899;47.542;19.082;2023-10-13T09:32:45;100809.28;;;20.74;100.00
61014;BME280;46899;47.542;19.082;2023-10-13T09:35:54;100812.34;;;20.81;100.00
61014;BME280;46899;47.542;19.082;2023-10-13T09:38:58;100808.97;;;20.79;99.36
61014;BME280;46899;47.542;19.082;2023-10-13T09:42:15;100807.13;;;20.92;99.83
61014;BME280;46899;47.542;19.082;2023-10-13T09:45:20;100810.31;;;20.97;98.60
61014;BME280;46899;47.542;19.082;2023-10-13T09:48:39;100803.91;;;20.51;100.00
61014;BME280;46899;47.542;19.082;2023-10-13T09:51:48;100806.44;;;20.77;100.00
61014;BME280;46899;47.542;19.082;2023-10-13T09:55:08;100802.41;;;20.84;100.00
61014;BME280;46899;47.542;19.082;2023-10-13T09:58:16;100808.19;;;20.89;97.63
61014;BME280;46899;47.542;19.082;2023-10-13T10:01:24;100806.91;;;21.20;96.67
61014;BME280;46899;47.542;19.082;2023-10-13T10:04:53;100800.69;;;21.45;94.24
61014;BME280;46899;47.542;19.082;2023-10-13T10:07:58;100798.50;;;21.62;92.24
61014;BME280;46899;47.542;19.082;2023-10-13T10:14:46;100795.59;;;22.02;88.22
61014;BME280;46899;47.542;19.082;2023-10-13T10:17:57;100797.09;;;22.28;87.06
61014;BME280;46899;47.542;19.082;2023-10-13T10:21:06;100785.28;;;22.32;86.02
61014;BME280;46899;47.542;19.082;2023-10-13T10:24:14;100779.28;;;22.30;85.90
61014;BME280;46899;47.542;19.082;2023-10-13T10:27:24;100777.13;;;22.57;84.29
61014;BME280;46899;47.542;19.082;2023-10-13T10:30:28;100771.19;;;22.42;85.20
61014;BME280;46899;47.542;19.082;2023-10-13T10:33:32;100771.09;;;22.44;84.74
61014;BME280;46899;47.542;19.082;2023-10-13T10:36:36;100767.59;;;22.32;85.57
61014;BME280;46899;47.542;19.082;2023-10-13T10:39:40;100754.63;;;22.06;85.54
61014;BME280;46899;47.542;19.082;2023-10-13T10:42:52;100758.47;;;22.02;86.56
61014;BME280;46899;47.542;19.082;2023-10-13T10:45:57;100753.62;;;21.96;88.21
61014;BME280;46899;47.542;19.082;2023-10-13T10:49:04;100745.44;;;21.99;88.84
61014;BME280;46899;47.542;19.082;2023-10-13T10:52:11;100744.53;;;22.11;88.39
61014;BME280;46899;47.542;19.082;2023-10-13T10:55:21;100735.94;;;22.07;88.31
61014;BME280;46899;47.542;19.082;2023-10-13T10:58:25;100734.66;;;22.24;88.27
61014;BME280;46899;47.542;19.082;2023-10-13T11:01:42;100745.28;;;22.35;87.78
61014;BME280;46899;47.542;19.082;2023-10-13T11:04:50;100740.31;;;22.30;85.67
61014;BME280;46899;47.542;19.082;2023-10-13T11:07:54;100737.56;;;22.43;86.18
61014;BME280;46899;47.542;19.082;2023-10-13T11:10:59;100739.94;;;22.24;85.78
61014;BME280;46899;47.542;19.082;2023-10-13T11:14:04;100726.47;;;22.27;88.34
61014;BME280;46899;47.542;19.082;2023-10-13T11:17:25;100718.78;;;22.35;88.99
61014;BME280;46899;47.542;19.082;2023-10-13T11:20:48;100719.59;;;22.35;88.88
61014;BME280;46899;47.542;19.082;2023-10-13T11:23:59;100724.34;;;22.65;86.46
61014;BME280;46899;47.542;19.082;2023-10-13T11:27:18;100716.97;;;22.69;87.01
61014;BME280;46899;47.542;19.082;2023-10-13T11:30:41;100714.28;;;23.02;85.58
61014;BME280;46899;47.542;19.082;2023-10-13T11:33:44;100711.56;;;23.35;82.15
61014;BME280;46899;47.542;19.082;2023-10-13T11:36:49;100724.69;;;23.48;82.09
61014;BME280;46899;47.542;19.082;2023-10-13T11:39:52;100716.03;;;23.66;80.31
61014;BME280;46899;47.542;19.082;2023-10-13T11:42:55;100706.12;;;23.89;79.67
61014;BME280;46899;47.542;19.082;2023-10-13T11:46:01;100702.38;;;24.12;78.35
61014;BME280;46899;47.542;19.082;2023-10-13T11:49:11;100705.75;;;24.14;78.29
61014;BME280;46899;47.542;19.082;2023-10-13T11:52:21;100705.50;;;24.17;79.19
61014;BME280;46899;47.542;19.082;2023-10-13T11:55:28;100707.94;;;24.30;78.01
61014;BME280;46899;47.542;19.082;2023-10-13T11:58:32;100699.28;;;24.07;78.68
61014;BME280;46899;47.542;19.082;2023-10-13T12:01:36;100694.59;;;24.20;79.46
61014;BME280;46899;47.542;19.082;2023-10-13T12:05:08;100696.06;;;24.34;77.86
61014;BME280;46899;47.542;19.082;2023-10-13T12:08:15;100693.09;;;24.58;77.43
61014;BME280;46899;47.542;19.082;2023-10-13T12:11:25;100686.16;;;24.45;79.28
61014;BME280;46899;47.542;19.082;2023-10-13T12:14:34;100692.78;;;24.51;78.15
61014;BME280;46899;47.542;19.082;2023-10-13T12:17:41;100685.41;;;24.34;77.85
61014;BME280;46899;47.542;19.082;2023-10-13T12:20:48;100677.87;;;24.39;77.95
61014;BME280;46899;47.542;19.082;2023-10-13T12:23:52;100686.78;;;24.19;79.38
61014;BME280;46899;47.542;19.082;2023-10-13T12:26:57;100677.59;;;24.32;77.69
61014;BME280;46899;47.542;19.082;2023-10-13T12:30:01;100675.59;;;24.25;79.21
61014;BME280;46899;47.542;19.082;2023-10-13T12:33:10;100676.53;;;24.44;80.27
61014;BME280;46899;47.542;19.082;2023-10-13T12:36:13;100670.66;;;24.51;79.37
61014;BME280;46899;47.542;19.082;2023-10-13T12:39:16;100673.16;;;24.52;78.26
61014;BME280;46899;47.542;19.082;2023-10-13T12:42:38;100669.28;;;24.56;77.51
61014;BME280;46899;47.542;19.082;2023-10-13T12:45:59;100664.00;;;24.35;78.32
61014;BME280;46899;47.542;19.082;2023-10-13T12:49:21;100660.72;;;24.53;78.45
61014;BME280;46899;47.542;19.082;2023-10-13T12:52:42;100658.31;;;24.80;77.42
61014;BME280;46899;47.542;19.082;2023-10-13T12:55:48;100659.31;;;24.88;75.36
61014;BME280;46899;47.542;19.082;2023-10-13T12:58:54;100654.28;;;25.04;73.60
61014;BME280;46899;47.542;19.082;2023-10-13T13:01:57;100650.63;;;24.96;72.53
61014;BME280;46899;47.542;19.082;2023-10-13T13:05:01;100634.66;;;24.96;72.07
61014;BME280;46899;47.542;19.082;2023-10-13T13:08:09;100642.50;;;25.07;71.25
61014;BME280;46899;47.542;19.082;2023-10-13T13:11:11;100634.50;;;24.97;71.76
61014;BME280;46899;47.542;19.082;2023-10-13T13:14:14;100634.25;;;25.20;71.65
61014;BME280;46899;47.542;19.082;2023-10-13T13:17:17;100626.53;;;25.17;72.91
61014;BME280;46899;47.542;19.082;2023-10-13T13:20:20;100630.91;;;25.27;72.06
61014;BME280;46899;47.542;19.082;2023-10-13T13:23:30;100629.63;;;25.22;69.09
61014;BME280;46899;47.542;19.082;2023-10-13T13:26:34;100616.16;;;25.33;68.94
61014;BME280;46899;47.542;19.082;2023-10-13T13:29:37;100617.28;;;25.30;67.64
61014;BME280;46899;47.542;19.082;2023-10-13T13:32:40;100618.81;;;25.42;66.64
61014;BME280;46899;47.542;19.082;2023-10-13T13:35:48;100619.53;;;25.44;69.62
61014;BME280;46899;47.542;19.082;2023-10-13T13:38:51;100623.19;;;25.62;63.59
61014;BME280;46899;47.542;19.082;2023-10-13T13:41:57;100617.53;;;25.65;63.38
61014;BME280;46899;47.542;19.082;2023-10-13T13:45:01;100615.53;;;25.77;65.93
61014;BME280;46899;47.542;19.082;2023-10-13T13:48:04;100612.34;;;25.73;62.74
61014;BME280;46899;47.542;19.082;2023-10-13T13:51:10;100602.81;;;25.71;63.74
61014;BME280;46899;47.542;19.082;2023-10-13T13:54:29;100612.53;;;25.62;61.13
61014;BME280;46899;47.542;19.082;2023-10-13T13:57:32;100611.25;;;25.66;58.74
61014;BME280;46899;47.542;19.082;2023-10-13T14:00:35;100608.16;;;25.61;60.66
61014;BME280;46899;47.542;19.082;2023-10-13T14:03:52;100606.47;;;25.51;58.24
61014;BME280;46899;47.542;19.082;2023-10-13T14:06:55;100602.56;;;25.55;58.94
61014;BME280;46899;47.542;19.082;2023-10-13T14:09:58;100605.25;;;25.45;59.44
61014;BME280;46899;47.542;19.082;2023-10-13T14:13:09;100594.41;;;25.28;60.08
61014;BME280;46899;47.542;19.082;2023-10-13T14:16:19;100590.50;;;25.03;60.23
61014;BME280;46899;47.542;19.082;2023-10-13T14:19:23;100591.47;;;24.83;63.68
61014;BME280;46899;47.542;19.082;2023-10-13T14:22:31;100592.91;;;24.57;63.98
61014;BME280;46899;47.542;19.082;2023-10-13T14:25:39;100586.84;;;24.35;64.15
61014;BME280;46899;47.542;19.082;2023-10-13T14:28:48;100588.22;;;24.20;61.06
61014;BME280;46899;47.542;19.082;2023-10-13T14:32:03;100581.03;;;24.11;60.64
61014;BME280;46899;47.542;19.082;2023-10-13T14:35:07;100577.41;;;23.92;65.32
61014;BME280;46899;47.542;19.082;2023-10-13T14:38:17;100573.16;;;23.79;67.24
61014;BME280;46899;47.542;19.082;2023-10-13T14:41:20;100571.00;;;23.64;66.67
61014;BME280;46899;47.542;19.082;2023-10-13T14:44:23;100572.87;;;23.52;66.69
61014;BME280;46899;47.542;19.082;2023-10-13T14:47:29;100566.25;;;23.47;66.37
61014;BME280;46899;47.542;19.082;2023-10-13T14:50:32;100566.78;;;23.41;65.83
61014;BME280;46899;47.542;19.082;2023-10-13T14:53:36;100561.56;;;23.19;67.84
61014;BME280;46899;47.542;19.082;2023-10-13T14:56:39;100561.66;;;22.96;68.56
61014;BME280;46899;47.542;19.082;2023-10-13T14:59:44;100561.63;;;22.76;71.99
61014;BME280;46899;47.542;19.082;2023-10-13T15:02:47;100562.16;;;22.59;72.62
61014;BME280;46899;47.542;19.082;2023-10-13T15:05:51;100566.41;;;22.39;73.94
61014;BME280;46899;47.542;19.082;2023-10-13T15:08:55;100563.28;;;22.23;75.68
61014;BME280;46899;47.542;19.082;2023-10-13T15:11:58;100565.56;;;22.16;75.42
61014;BME280;46899;47.542;19.082;2023-10-13T15:15:01;100570.53;;;21.99;79.45
61014;BME280;46899;47.542;19.082;2023-10-13T15:18:05;100560.84;;;21.75;80.93
61014;BME280;46899;47.542;19.082;2023-10-13T15:21:07;100556.72;;;21.60;81.48
61014;BME280;46899;47.542;19.082;2023-10-13T15:24:12;100562.16;;;21.48;83.70
61014;BME280;46899;47.542;19.082;2023-10-13T15:27:28;100558.00;;;21.33;83.35
61014;BME280;46899;47.542;19.082;2023-10-13T15:30:34;100561.72;;;21.19;84.53
61014;BME280;46899;47.542;19.082;2023-10-13T15:33:56;100558.50;;;21.03;87.89
61014;BME280;46899;47.542;19.082;2023-10-13T15:37:00;100553.41;;;20.89;87.73
61014;BME280;46899;47.542;19.082;2023-10-13T15:40:08;100558.75;;;20.76;91.39
61014;BME280;46899;47.542;19.082;2023-10-13T15:43:17;100554.69;;;20.60;94.67
61014;BME280;46899;47.542;19.082;2023-10-13T15:46:24;100556.53;;;20.47;92.37
61014;BME280;46899;47.542;19.082;2023-10-13T15:49:47;100559.94;;;20.36;92.57
61014;BME280;46899;47.542;19.082;2023-10-13T15:52:50;100561.00;;;20.21;93.32
61014;BME280;46899;47.542;19.082;2023-10-13T15:55:53;100559.25;;;20.09;94.52
61014;BME280;46899;47.542;19.082;2023-10-13T15:58:56;100558.53;;;19.94;94.48
61014;BME280;46899;47.542;19.082;2023-10-13T16:01:59;100558.53;;;19.82;94.72
61014;BME280;46899;47.542;19.082;2023-10-13T16:05:02;100559.31;;;19.71;95.21
61014;BME280;46899;47.542;19.082;2023-10-13T16:08:09;100555.78;;;19.58;95.75
61014;BME280;46899;47.542;19.082;2023-10-13T16:11:16;100553.06;;;19.47;96.00
61014;BME280;46899;47.542;19.082;2023-10-13T16:14:21;100552.84;;;19.37;96.41